Список аэропортов
Фактическая погода:

01 марта, 22:20
Температура: +2°C (-1.1*)
Ветер: западный 3 м/с
Давление: *752 мм
неб. 630 м
Время (МСК)Темп. СВетерВлажностьДавлениеОблачностьОсадки
21:00+6З, 7 м/с68%1002 гПамалооблачно
22:00+5З, 4 м/с74%1002 гПаясно
23:00+4ЮЗ, 3 м/с82%1002 гПас прояснениями
02 марта
00:00+4Ю, 3 м/с85%1003 гПас прояснениями
01:00+3Ю, 3 м/с89%1002 гПамалооблачно
02:00+2Ю, 3 м/с89%1002 гПаоблачно
03:00+2Ю, 3 м/с87%1002 гПаоблачно
04:00+2ЮВ, 3 м/с83%1001 гПаоблачно
05:00+3ЮВ, 4 м/с85%1000 гПаоблачносл. дождь
06:00+4ЮВ, 4 м/с88%999 гПаоблачносл. дождь
07:00+5ЮВ, 4 м/с89%998 гПаоблачнодождь
08:00+6Ю, 6 м/с86%996 гПаоблачнодождь
09:00+6Ю, 8 м/с85%996 гПаоблачно
10:00+7ЮЗ, 9 м/с84%996 гПаоблачно
11:00+8ЮЗ, 10 м/с70%996 гПаоблачносл. дождь
12:00+9ЮЗ, 13 м/с62%997 гПаоблачнодождь
13:00+9З, 14 м/с55%997 гПаоблачносл. дождь
14:00+8З, 14 м/с54%999 гПаоблачнодождь
15:00+7З, 13 м/с56%1000 гПаоблачнодождь
16:00+7З, 13 м/с57%1000 гПаоблачнодождь
17:00+6З, 13 м/с64%1001 гПаоблачносл. дождь
18:00+6З, 12 м/с69%1002 гПаоблачносл. дождь
19:00+6З, 12 м/с69%1003 гПаоблачносл. дождь
20:00+7З, 11 м/с65%1005 гПаоблачно
21:00+7З, 11 м/с64%1006 гПаоблачно
22:00+7З, 9 м/с65%1007 гПаоблачносл. дождь
23:00+6З, 8 м/с70%1008 гПаоблачнодождь
03 марта
00:00+6З, 7 м/с72%1009 гПаоблачнодождь
01:00+6З, 8 м/с71%1010 гПаоблачнодождь
02:00+6З, 8 м/с70%1010 гПамалооблачно
03:00+5З, 7 м/с73%1011 гПамалооблачно
04:00+5З, 6 м/с75%1012 гПаясно
05:00+4З, 6 м/с77%1012 гПамалооблачно
06:00+4ЮЗ, 5 м/с78%1012 гПаоблачно
07:00+3ЮЗ, 5 м/с81%1012 гПаоблачно
08:00+3ЮЗ, 5 м/с84%1012 гПамалооблачно
09:00+3ЮЗ, 5 м/с83%1012 гПаясно
10:00+3ЮЗ, 5 м/с78%1013 гПаоблачно
11:00+5ЮЗ, 6 м/с65%1012 гПас прояснениями
12:00+7ЮЗ, 6 м/с60%1012 гПаоблачно
13:00+8ЮЗ, 6 м/с57%1012 гПаоблачно
14:00+9ЮЗ, 6 м/с53%1011 гПаоблачно
15:00+10ЮЗ, 6 м/с50%1011 гПаоблачно
16:00+10ЮЗ, 5 м/с47%1010 гПаоблачно
17:00+10ЮЗ, 5 м/с43%1009 гПаоблачно
18:00+10ЮЗ, 5 м/с44%1009 гПаоблачно
19:00+10Ю, 5 м/с45%1008 гПаоблачно
20:00+10Ю, 3 м/с47%1007 гПаоблачно
21:00+9ЮВ, 3 м/с49%1006 гПаоблачно